sensor_id;sensor_type;location;lat;lon;timestamp;P1;durP1;ratioP1;P2;durP2;ratioP2
39518;SDS011;25200;53.394;10.414;2023-08-17T00:00:15;6.50;;;1.67;;
39518;SDS011;25200;53.394;10.414;2023-08-17T00:02:43;4.18;;;1.58;;
39518;SDS011;25200;53.394;10.414;2023-08-17T00:05:08;7.50;;;1.70;;
39518;SDS011;25200;53.394;10.414;2023-08-17T00:07:34;5.82;;;1.85;;
39518;SDS011;25200;53.394;10.414;2023-08-17T00:10:00;7.82;;;1.70;;
39518;SDS011;25200;53.394;10.414;2023-08-17T00:12:26;5.28;;;1.50;;
39518;SDS011;25200;53.394;10.414;2023-08-17T00:14:52;2.80;;;1.45;;
39518;SDS011;25200;53.394;10.414;2023-08-17T00:17:18;4.90;;;1.45;;
39518;SDS011;25200;53.394;10.414;2023-08-17T00:19:44;3.40;;;1.45;;
39518;SDS011;25200;53.394;10.414;2023-08-17T00:22:10;6.43;;;1.80;;
39518;SDS011;25200;53.394;10.414;2023-08-17T00:24:35;4.18;;;1.50;;
39518;SDS011;25200;53.394;10.414;2023-08-17T00:27:01;6.82;;;1.80;;
39518;SDS011;25200;53.394;10.414;2023-08-17T00:29:28;6.18;;;1.98;;
39518;SDS011;25200;53.394;10.414;2023-08-17T00:31:54;5.85;;;1.70;;
39518;SDS011;25200;53.394;10.414;2023-08-17T00:34:19;6.25;;;1.83;;
39518;SDS011;25200;53.394;10.414;2023-08-17T00:36:45;5.47;;;1.42;;
39518;SDS011;25200;53.394;10.414;2023-08-17T00:39:11;6.15;;;1.83;;
39518;SDS011;25200;53.394;10.414;2023-08-17T00:41:36;6.90;;;1.83;;
39518;SDS011;25200;53.394;10.414;2023-08-17T00:44:02;6.38;;;1.90;;
39518;SDS011;25200;53.394;10.414;2023-08-17T00:46:29;7.28;;;1.80;;
39518;SDS011;25200;53.394;10.414;2023-08-17T00:48:55;7.43;;;1.80;;
39518;SDS011;25200;53.394;10.414;2023-08-17T00:51:22;9.25;;;1.85;;
39518;SDS011;25200;53.394;10.414;2023-08-17T00:53:50;5.03;;;1.88;;
39518;SDS011;25200;53.394;10.414;2023-08-17T00:56:16;7.07;;;1.85;;
39518;SDS011;25200;53.394;10.414;2023-08-17T00:58:42;4.60;;;1.80;;
39518;SDS011;25200;53.394;10.414;2023-08-17T01:01:08;7.85;;;2.00;;
39518;SDS011;25200;53.394;10.414;2023-08-17T01:03:34;4.97;;;1.80;;
39518;SDS011;25200;53.394;10.414;2023-08-17T01:06:01;5.85;;;1.80;;
39518;SDS011;25200;53.394;10.414;2023-08-17T01:08:28;6.68;;;1.55;;
39518;SDS011;25200;53.394;10.414;2023-08-17T01:10:57;4.90;;;1.58;;
39518;SDS011;25200;53.394;10.414;2023-08-17T01:16:21;8.65;;;1.85;;
39518;SDS011;25200;53.394;10.414;2023-08-17T01:18:58;7.35;;;1.80;;
39518;SDS011;25200;53.394;10.414;2023-08-17T01:21:25;4.28;;;1.80;;
39518;SDS011;25200;53.394;10.414;2023-08-17T01:24:02;5.20;;;1.83;;
39518;SDS011;25200;53.394;10.414;2023-08-17T01:26:28;4.63;;;1.65;;
39518;SDS011;25200;53.394;10.414;2023-08-17T01:28:57;3.60;;;1.60;;
39518;SDS011;25200;53.394;10.414;2023-08-17T01:31:33;5.80;;;1.80;;
39518;SDS011;25200;53.394;10.414;2023-08-17T01:34:07;4.65;;;1.65;;
39518;SDS011;25200;53.394;10.414;2023-08-17T01:36:42;5.55;;;1.58;;
39518;SDS011;25200;53.394;10.414;2023-08-17T01:39:15;7.55;;;1.80;;
39518;SDS011;25200;53.394;10.414;2023-08-17T01:41:41;4.25;;;1.75;;
39518;SDS011;25200;53.394;10.414;2023-08-17T01:44:09;5.55;;;2.03;;
39518;SDS011;25200;53.394;10.414;2023-08-17T01:46:35;6.43;;;1.85;;
39518;SDS011;25200;53.394;10.414;2023-08-17T01:49:00;8.05;;;1.67;;
39518;SDS011;25200;53.394;10.414;2023-08-17T01:51:26;4.13;;;1.90;;
39518;SDS011;25200;53.394;10.414;2023-08-17T01:53:52;4.40;;;1.38;;
39518;SDS011;25200;53.394;10.414;2023-08-17T01:56:18;5.57;;;1.88;;
39518;SDS011;25200;53.394;10.414;2023-08-17T01:58:43;6.57;;;1.63;;
39518;SDS011;25200;53.394;10.414;2023-08-17T02:01:09;7.70;;;1.65;;
39518;SDS011;25200;53.394;10.414;2023-08-17T02:03:35;6.63;;;1.80;;
39518;SDS011;25200;53.394;10.414;2023-08-17T02:06:01;4.47;;;1.77;;
39518;SDS011;25200;53.394;10.414;2023-08-17T02:08:26;4.75;;;1.63;;
39518;SDS011;25200;53.394;10.414;2023-08-17T02:10:52;3.28;;;1.20;;
39518;SDS011;25200;53.394;10.414;2023-08-17T02:13:18;6.20;;;1.80;;
39518;SDS011;25200;53.394;10.414;2023-08-17T02:15:44;4.55;;;1.63;;
39518;SDS011;25200;53.394;10.414;2023-08-17T02:18:11;5.65;;;1.60;;
39518;SDS011;25200;53.394;10.414;2023-08-17T02:20:37;5.07;;;1.75;;
39518;SDS011;25200;53.394;10.414;2023-08-17T02:23:02;7.65;;;1.75;;
39518;SDS011;25200;53.394;10.414;2023-08-17T02:25:28;4.70;;;1.60;;
39518;SDS011;25200;53.394;10.414;2023-08-17T02:28:00;6.80;;;1.70;;
39518;SDS011;25200;53.394;10.414;2023-08-17T02:30:27;5.90;;;1.90;;
39518;SDS011;25200;53.394;10.414;2023-08-17T02:32:52;6.30;;;2.22;;
39518;SDS011;25200;53.394;10.414;2023-08-17T02:35:18;5.65;;;1.80;;
39518;SDS011;25200;53.394;10.414;2023-08-17T02:37:44;3.58;;;1.70;;
39518;SDS011;25200;53.394;10.414;2023-08-17T02:40:10;4.53;;;1.35;;
39518;SDS011;25200;53.394;10.414;2023-08-17T02:42:35;7.43;;;2.10;;
39518;SDS011;25200;53.394;10.414;2023-08-17T02:45:01;5.60;;;1.92;;
39518;SDS011;25200;53.394;10.414;2023-08-17T02:47:27;4.82;;;1.60;;
39518;SDS011;25200;53.394;10.414;2023-08-17T02:49:53;5.05;;;1.60;;
39518;SDS011;25200;53.394;10.414;2023-08-17T02:52:19;6.60;;;1.58;;
39518;SDS011;25200;53.394;10.414;2023-08-17T02:54:44;7.88;;;1.70;;
39518;SDS011;25200;53.394;10.414;2023-08-17T02:57:10;4.63;;;1.65;;
39518;SDS011;25200;53.394;10.414;2023-08-17T02:59:37;4.55;;;1.60;;
39518;SDS011;25200;53.394;10.414;2023-08-17T03:02:02;8.20;;;1.90;;
39518;SDS011;25200;53.394;10.414;2023-08-17T03:04:28;5.30;;;1.90;;
39518;SDS011;25200;53.394;10.414;2023-08-17T03:06:53;6.88;;;1.67;;
39518;SDS011;25200;53.394;10.414;2023-08-17T03:09:19;5.30;;;1.60;;
39518;SDS011;25200;53.394;10.414;2023-08-17T03:11:45;4.35;;;2.00;;
39518;SDS011;25200;53.394;10.414;2023-08-17T03:14:10;4.82;;;1.52;;
39518;SDS011;25200;53.394;10.414;2023-08-17T03:16:36;5.35;;;1.80;;
39518;SDS011;25200;53.394;10.414;2023-08-17T03:19:03;6.65;;;1.75;;
39518;SDS011;25200;53.394;10.414;2023-08-17T03:21:29;7.05;;;1.75;;
39518;SDS011;25200;53.394;10.414;2023-08-17T03:23:55;7.88;;;1.75;;
39518;SDS011;25200;53.394;10.414;2023-08-17T03:26:21;5.80;;;1.70;;
39518;SDS011;25200;53.394;10.414;2023-08-17T03:28:46;3.10;;;1.50;;
39518;SDS011;25200;53.394;10.414;2023-08-17T03:31:12;5.43;;;1.80;;
39518;SDS011;25200;53.394;10.414;2023-08-17T03:33:38;5.53;;;1.92;;
39518;SDS011;25200;53.394;10.414;2023-08-17T03:36:05;5.25;;;1.90;;
39518;SDS011;25200;53.394;10.414;2023-08-17T03:38:31;3.47;;;1.52;;
39518;SDS011;25200;53.394;10.414;2023-08-17T03:40:57;6.55;;;1.75;;
39518;SDS011;25200;53.394;10.414;2023-08-17T03:43:23;4.75;;;1.92;;
39518;SDS011;25200;53.394;10.414;2023-08-17T03:45:50;6.40;;;1.80;;
39518;SDS011;25200;53.394;10.414;2023-08-17T03:48:15;4.07;;;1.70;;
39518;SDS011;25200;53.394;10.414;2023-08-17T03:50:42;5.13;;;1.90;;
39518;SDS011;25200;53.394;10.414;2023-08-17T03:53:08;6.95;;;1.98;;
39518;SDS011;25200;53.394;10.414;2023-08-17T03:55:33;6.90;;;1.90;;
39518;SDS011;25200;53.394;10.414;2023-08-17T03:57:59;5.35;;;1.83;;
39518;SDS011;25200;53.394;10.414;2023-08-17T04:00:24;7.22;;;1.67;;
39518;SDS011;25200;53.394;10.414;2023-08-17T04:02:50;4.90;;;1.92;;
39518;SDS011;25200;53.394;10.414;2023-08-17T04:05:16;7.18;;;2.10;;
39518;SDS011;25200;53.394;10.414;2023-08-17T04:07:42;4.72;;;1.77;;
39518;SDS011;25200;53.394;10.414;2023-08-17T04:10:07;7.97;;;2.05;;
39518;SDS011;25200;53.394;10.414;2023-08-17T04:12:33;6.70;;;2.10;;
39518;SDS011;25200;53.394;10.414;2023-08-17T04:14:59;4.25;;;1.60;;
39518;SDS011;25200;53.394;10.414;2023-08-17T04:17:25;4.05;;;1.60;;
39518;SDS011;25200;53.394;10.414;2023-08-17T04:19:51;5.40;;;1.92;;
39518;SDS011;25200;53.394;10.414;2023-08-17T04:22:17;6.88;;;1.88;;
39518;SDS011;25200;53.394;10.414;2023-08-17T04:24:42;7.40;;;1.90;;
39518;SDS011;25200;53.394;10.414;2023-08-17T04:27:08;6.43;;;1.90;;
39518;SDS011;25200;53.394;10.414;2023-08-17T04:29:34;4.72;;;1.88;;
39518;SDS011;25200;53.394;10.414;2023-08-17T04:31:59;7.78;;;2.22;;
39518;SDS011;25200;53.394;10.414;2023-08-17T04:34:25;6.53;;;1.90;;
39518;SDS011;25200;53.394;10.414;2023-08-17T04:36:51;3.63;;;1.80;;
39518;SDS011;25200;53.394;10.414;2023-08-17T04:39:16;4.30;;;1.90;;
39518;SDS011;25200;53.394;10.414;2023-08-17T04:41:42;6.55;;;1.83;;
39518;SDS011;25200;53.394;10.414;2023-08-17T04:44:08;8.48;;;2.30;;
39518;SDS011;25200;53.394;10.414;2023-08-17T04:46:34;4.50;;;1.90;;
39518;SDS011;25200;53.394;10.414;2023-08-17T04:49:00;12.00;;;2.33;;
39518;SDS011;25200;53.394;10.414;2023-08-17T04:51:26;6.35;;;2.10;;
39518;SDS011;25200;53.394;10.414;2023-08-17T04:53:51;5.63;;;2.10;;
39518;SDS011;25200;53.394;10.414;2023-08-17T04:56:17;6.55;;;2.10;;
39518;SDS011;25200;53.394;10.414;2023-08-17T04:58:43;11.07;;;2.05;;
39518;SDS011;25200;53.394;10.414;2023-08-17T05:01:08;8.30;;;2.33;;
39518;SDS011;25200;53.394;10.414;2023-08-17T05:03:35;7.38;;;2.30;;
39518;SDS011;25200;53.394;10.414;2023-08-17T05:06:01;6.20;;;2.30;;
39518;SDS011;25200;53.394;10.414;2023-08-17T05:08:26;6.03;;;2.25;;
39518;SDS011;25200;53.394;10.414;2023-08-17T05:10:52;5.05;;;2.40;;
39518;SDS011;25200;53.394;10.414;2023-08-17T05:13:18;7.18;;;2.42;;
39518;SDS011;25200;53.394;10.414;2023-08-17T05:15:44;6.93;;;2.20;;
39518;SDS011;25200;53.394;10.414;2023-08-17T05:18:10;6.18;;;2.00;;
39518;SDS011;25200;53.394;10.414;2023-08-17T05:20:35;9.05;;;2.60;;
39518;SDS011;25200;53.394;10.414;2023-08-17T05:23:01;6.05;;;2.20;;
39518;SDS011;25200;53.394;10.414;2023-08-17T05:25:27;6.28;;;2.10;;
39518;SDS011;25200;53.394;10.414;2023-08-17T05:27:54;6.95;;;1.98;;
39518;SDS011;25200;53.394;10.414;2023-08-17T05:30:20;6.40;;;2.25;;
39518;SDS011;25200;53.394;10.414;2023-08-17T05:32:46;5.78;;;1.85;;
39518;SDS011;25200;53.394;10.414;2023-08-17T05:35:11;9.18;;;2.58;;
39518;SDS011;25200;53.394;10.414;2023-08-17T05:37:37;5.82;;;2.40;;
39518;SDS011;25200;53.394;10.414;2023-08-17T05:40:03;5.32;;;2.30;;
39518;SDS011;25200;53.394;10.414;2023-08-17T05:42:29;5.85;;;2.60;;
39518;SDS011;25200;53.394;10.414;2023-08-17T05:44:55;7.75;;;2.35;;
39518;SDS011;25200;53.394;10.414;2023-08-17T05:47:21;5.50;;;2.20;;
39518;SDS011;25200;53.394;10.414;2023-08-17T05:49:46;4.68;;;2.10;;
39518;SDS011;25200;53.394;10.414;2023-08-17T05:52:12;5.22;;;1.83;;
39518;SDS011;25200;53.394;10.414;2023-08-17T05:54:38;3.45;;;1.83;;
39518;SDS011;25200;53.394;10.414;2023-08-17T05:57:04;5.82;;;1.88;;
39518;SDS011;25200;53.394;10.414;2023-08-17T05:59:29;6.32;;;2.00;;
39518;SDS011;25200;53.394;10.414;2023-08-17T06:01:55;8.68;;;2.03;;
39518;SDS011;25200;53.394;10.414;2023-08-17T06:04:20;8.30;;;1.80;;
39518;SDS011;25200;53.394;10.414;2023-08-17T06:06:46;4.15;;;1.83;;
39518;SDS011;25200;53.394;10.414;2023-08-17T06:09:12;2.85;;;1.33;;
39518;SDS011;25200;53.394;10.414;2023-08-17T06:11:39;4.20;;;1.75;;
39518;SDS011;25200;53.394;10.414;2023-08-17T06:14:04;3.67;;;1.40;;
39518;SDS011;25200;53.394;10.414;2023-08-17T06:16:30;4.22;;;1.40;;
39518;SDS011;25200;53.394;10.414;2023-08-17T06:18:56;4.15;;;1.40;;
39518;SDS011;25200;53.394;10.414;2023-08-17T06:21:22;4.57;;;1.55;;
39518;SDS011;25200;53.394;10.414;2023-08-17T06:23:48;3.25;;;1.38;;
39518;SDS011;25200;53.394;10.414;2023-08-17T06:26:13;3.13;;;1.42;;
39518;SDS011;25200;53.394;10.414;2023-08-17T06:28:39;5.30;;;1.60;;
39518;SDS011;25200;53.394;10.414;2023-08-17T06:31:05;3.85;;;1.40;;
39518;SDS011;25200;53.394;10.414;2023-08-17T06:33:30;3.72;;;1.50;;
39518;SDS011;25200;53.394;10.414;2023-08-17T06:35:56;4.45;;;1.20;;
39518;SDS011;25200;53.394;10.414;2023-08-17T06:38:22;2.97;;;1.25;;
39518;SDS011;25200;53.394;10.414;2023-08-17T06:40:47;4.72;;;1.42;;
39518;SDS011;25200;53.394;10.414;2023-08-17T06:43:13;2.80;;;1.30;;
39518;SDS011;25200;53.394;10.414;2023-08-17T06:45:39;3.65;;;1.30;;
39518;SDS011;25200;53.394;10.414;2023-08-17T06:48:04;3.97;;;1.55;;
39518;SDS011;25200;53.394;10.414;2023-08-17T06:50:30;5.70;;;1.70;;
39518;SDS011;25200;53.394;10.414;2023-08-17T06:52:56;2.63;;;1.40;;
39518;SDS011;25200;53.394;10.414;2023-08-17T06:55:22;2.63;;;1.20;;
39518;SDS011;25200;53.394;10.414;2023-08-17T06:57:47;4.25;;;1.65;;
39518;SDS011;25200;53.394;10.414;2023-08-17T07:00:16;4.10;;;1.38;;
39518;SDS011;25200;53.394;10.414;2023-08-17T07:02:45;3.70;;;1.70;;
39518;SDS011;25200;53.394;10.414;2023-08-17T07:05:13;3.72;;;1.50;;
39518;SDS011;25200;53.394;10.414;2023-08-17T07:07:43;3.50;;;1.52;;
39518;SDS011;25200;53.394;10.414;2023-08-17T07:10:09;5.85;;;1.85;;
39518;SDS011;25200;53.394;10.414;2023-08-17T07:12:39;5.03;;;1.85;;
39518;SDS011;25200;53.394;10.414;2023-08-17T07:15:05;2.42;;;1.33;;
39518;SDS011;25200;53.394;10.414;2023-08-17T07:17:32;3.22;;;1.60;;
39518;SDS011;25200;53.394;10.414;2023-08-17T07:19:59;4.07;;;1.80;;
39518;SDS011;25200;53.394;10.414;2023-08-17T07:22:25;4.80;;;1.60;;
39518;SDS011;25200;53.394;10.414;2023-08-17T07:24:50;3.38;;;1.50;;
39518;SDS011;25200;53.394;10.414;2023-08-17T07:27:16;4.13;;;1.67;;
39518;SDS011;25200;53.394;10.414;2023-08-17T07:29:42;5.32;;;1.50;;
39518;SDS011;25200;53.394;10.414;2023-08-17T07:32:07;5.22;;;1.95;;
39518;SDS011;25200;53.394;10.414;2023-08-17T07:34:34;4.97;;;1.77;;
39518;SDS011;25200;53.394;10.414;2023-08-17T07:37:00;4.93;;;1.80;;
39518;SDS011;25200;53.394;10.414;2023-08-17T07:39:26;5.25;;;1.70;;
39518;SDS011;25200;53.394;10.414;2023-08-17T07:41:52;5.47;;;1.67;;
39518;SDS011;25200;53.394;10.414;2023-08-17T07:44:17;4.38;;;1.90;;
39518;SDS011;25200;53.394;10.414;2023-08-17T07:46:43;3.28;;;1.45;;
39518;SDS011;25200;53.394;10.414;2023-08-17T07:49:08;3.58;;;1.40;;
39518;SDS011;25200;53.394;10.414;2023-08-17T07:51:34;4.50;;;1.55;;
39518;SDS011;25200;53.394;10.414;2023-08-17T07:54:00;4.10;;;1.85;;
39518;SDS011;25200;53.394;10.414;2023-08-17T07:56:26;4.30;;;1.83;;
39518;SDS011;25200;53.394;10.414;2023-08-17T07:58:53;5.80;;;1.80;;
39518;SDS011;25200;53.394;10.414;2023-08-17T08:01:19;6.63;;;2.00;;
39518;SDS011;25200;53.394;10.414;2023-08-17T08:03:45;5.68;;;1.88;;
39518;SDS011;25200;53.394;10.414;2023-08-17T08:06:10;4.55;;;1.90;;
39518;SDS011;25200;53.394;10.414;2023-08-17T08:08:37;3.45;;;1.90;;
39518;SDS011;25200;53.394;10.414;2023-08-17T08:11:02;4.90;;;1.70;;
39518;SDS011;25200;53.394;10.414;2023-08-17T08:13:29;6.38;;;2.05;;
39518;SDS011;25200;53.394;10.414;2023-08-17T08:15:55;6.25;;;2.17;;
39518;SDS011;25200;53.394;10.414;2023-08-17T08:18:21;5.57;;;1.80;;
39518;SDS011;25200;53.394;10.414;2023-08-17T08:20:47;4.32;;;1.80;;
39518;SDS011;25200;53.394;10.414;2023-08-17T08:23:14;6.22;;;1.95;;
39518;SDS011;25200;53.394;10.414;2023-08-17T08:25:39;5.43;;;1.98;;
39518;SDS011;25200;53.394;10.414;2023-08-17T08:28:06;3.00;;;1.50;;
39518;SDS011;25200;53.394;10.414;2023-08-17T08:30:31;6.70;;;2.00;;
39518;SDS011;25200;53.394;10.414;2023-08-17T08:32:57;4.22;;;1.58;;
39518;SDS011;25200;53.394;10.414;2023-08-17T08:35:24;6.50;;;2.10;;
39518;SDS011;25200;53.394;10.414;2023-08-17T08:37:50;3.67;;;1.48;;
39518;SDS011;25200;53.394;10.414;2023-08-17T08:40:16;4.22;;;1.60;;
39518;SDS011;25200;53.394;10.414;2023-08-17T08:42:43;3.95;;;1.58;;
39518;SDS011;25200;53.394;10.414;2023-08-17T08:45:09;4.72;;;1.73;;
39518;SDS011;25200;53.394;10.414;2023-08-17T08:47:38;4.05;;;1.40;;
39518;SDS011;25200;53.394;10.414;2023-08-17T08:50:06;6.57;;;1.90;;
39518;SDS011;25200;53.394;10.414;2023-08-17T08:52:34;7.68;;;1.85;;
39518;SDS011;25200;53.394;10.414;2023-08-17T08:55:12;3.67;;;1.38;;
39518;SDS011;25200;53.394;10.414;2023-08-17T08:57:42;2.78;;;1.20;;
39518;SDS011;25200;53.394;10.414;2023-08-17T09:00:08;4.40;;;1.30;;
39518;SDS011;25200;53.394;10.414;2023-08-17T09:02:34;3.22;;;1.30;;
39518;SDS011;25200;53.394;10.414;2023-08-17T09:05:00;4.65;;;1.58;;
39518;SDS011;25200;53.394;10.414;2023-08-17T09:07:28;3.55;;;1.40;;
39518;SDS011;25200;53.394;10.414;2023-08-17T09:09:55;3.20;;;1.48;;
39518;SDS011;25200;53.394;10.414;2023-08-17T09:12:22;3.08;;;1.38;;
39518;SDS011;25200;53.394;10.414;2023-08-17T09:14:48;3.97;;;1.50;;
39518;SDS011;25200;53.394;10.414;2023-08-17T09:17:14;3.55;;;1.38;;
39518;SDS011;25200;53.394;10.414;2023-08-17T09:22:16;4.65;;;1.58;;
39518;SDS011;25200;53.394;10.414;2023-08-17T09:24:50;3.45;;;1.30;;
39518;SDS011;25200;53.394;10.414;2023-08-17T09:27:16;7.53;;;1.60;;
39518;SDS011;25200;53.394;10.414;2023-08-17T09:29:42;3.65;;;1.60;;
39518;SDS011;25200;53.394;10.414;2023-08-17T09:32:10;4.15;;;1.60;;
39518;SDS011;25200;53.394;10.414;2023-08-17T09:34:41;5.47;;;1.50;;
39518;SDS011;25200;53.394;10.414;2023-08-17T09:37:07;3.70;;;1.40;;
39518;SDS011;25200;53.394;10.414;2023-08-17T09:39:33;7.70;;;1.52;;
39518;SDS011;25200;53.394;10.414;2023-08-17T09:41:59;3.63;;;1.38;;
39518;SDS011;25200;53.394;10.414;2023-08-17T09:44:25;2.17;;;1.27;;
39518;SDS011;25200;53.394;10.414;2023-08-17T09:46:51;2.83;;;1.33;;
39518;SDS011;25200;53.394;10.414;2023-08-17T09:49:19;2.65;;;1.20;;
39518;SDS011;25200;53.394;10.414;2023-08-17T09:51:47;2.42;;;1.10;;
39518;SDS011;25200;53.394;10.414;2023-08-17T09:54:20;4.93;;;1.40;;
39518;SDS011;25200;53.394;10.414;2023-08-17T09:56:48;2.08;;;1.20;;
39518;SDS011;25200;53.394;10.414;2023-08-17T09:59:17;4.63;;;1.40;;
39518;SDS011;25200;53.394;10.414;2023-08-17T10:01:43;3.22;;;1.30;;
39518;SDS011;25200;53.394;10.414;2023-08-17T10:04:15;1.95;;;1.10;;
39518;SDS011;25200;53.394;10.414;2023-08-17T10:06:48;3.33;;;1.20;;
39518;SDS011;25200;53.394;10.414;2023-08-17T10:09:23;2.53;;;1.20;;
39518;SDS011;25200;53.394;10.414;2023-08-17T10:11:56;3.40;;;1.20;;
39518;SDS011;25200;53.394;10.414;2023-08-17T10:14:28;2.13;;;1.10;;
39518;SDS011;25200;53.394;10.414;2023-08-17T10:17:02;2.65;;;1.15;;
39518;SDS011;25200;53.394;10.414;2023-08-17T10:19:46;3.17;;;1.35;;
39518;SDS011;25200;53.394;10.414;2023-08-17T10:25:03;3.47;;;1.27;;
39518;SDS011;25200;53.394;10.414;2023-08-17T10:27:30;3.15;;;1.02;;
39518;SDS011;25200;53.394;10.414;2023-08-17T10:29:58;2.58;;;1.27;;
39518;SDS011;25200;53.394;10.414;2023-08-17T10:32:25;2.95;;;1.30;;
39518;SDS011;25200;53.394;10.414;2023-08-17T10:34:52;1.45;;;0.80;;
39518;SDS011;25200;53.394;10.414;2023-08-17T10:37:19;3.65;;;1.15;;
39518;SDS011;25200;53.394;10.414;2023-08-17T10:39:46;2.78;;;1.17;;
39518;SDS011;25200;53.394;10.414;2023-08-17T10:42:13;3.00;;;1.30;;
39518;SDS011;25200;53.394;10.414;2023-08-17T10:47:29;3.58;;;1.10;;
39518;SDS011;25200;53.394;10.414;2023-08-17T10:50:04;1.88;;;1.20;;
39518;SDS011;25200;53.394;10.414;2023-08-17T10:52:32;2.67;;;1.23;;
39518;SDS011;25200;53.394;10.414;2023-08-17T10:55:02;2.80;;;1.27;;
39518;SDS011;25200;53.394;10.414;2023-08-17T11:02:33;5.32;;;1.45;;
39518;SDS011;25200;53.394;10.414;2023-08-17T11:05:00;3.88;;;1.60;;
39518;SDS011;25200;53.394;10.414;2023-08-17T11:07:26;3.78;;;1.20;;
39518;SDS011;25200;53.394;10.414;2023-08-17T11:09:53;2.45;;;1.40;;
39518;SDS011;25200;53.394;10.414;2023-08-17T11:12:25;3.30;;;1.40;;
39518;SDS011;25200;53.394;10.414;2023-08-17T11:14:52;2.92;;;1.50;;
39518;SDS011;25200;53.394;10.414;2023-08-17T11:17:20;2.50;;;1.40;;
39518;SDS011;25200;53.394;10.414;2023-08-17T11:19:46;4.85;;;1.80;;
39518;SDS011;25200;53.394;10.414;2023-08-17T11:22:12;3.15;;;1.55;;
39518;SDS011;25200;53.394;10.414;2023-08-17T11:24:37;3.88;;;1.63;;
39518;SDS011;25200;53.394;10.414;2023-08-17T11:27:05;2.85;;;1.30;;
39518;SDS011;25200;53.394;10.414;2023-08-17T11:29:31;2.90;;;1.48;;
39518;SDS011;25200;53.394;10.414;2023-08-17T11:31:59;2.58;;;1.33;;
39518;SDS011;25200;53.394;10.414;2023-08-17T11:34:24;3.13;;;1.42;;
39518;SDS011;25200;53.394;10.414;2023-08-17T11:36:50;2.90;;;1.38;;
39518;SDS011;25200;53.394;10.414;2023-08-17T11:39:16;2.92;;;1.40;;
39518;SDS011;25200;53.394;10.414;2023-08-17T11:41:45;3.28;;;1.40;;
39518;SDS011;25200;53.394;10.414;2023-08-17T11:44:10;3.60;;;1.38;;
39518;SDS011;25200;53.394;10.414;2023-08-17T11:46:37;2.42;;;1.30;;
39518;SDS011;25200;53.394;10.414;2023-08-17T11:49:03;3.05;;;1.42;;
39518;SDS011;25200;53.394;10.414;2023-08-17T11:51:30;2.88;;;1.30;;
39518;SDS011;25200;53.394;10.414;2023-08-17T11:53:59;4.40;;;1.50;;
39518;SDS011;25200;53.394;10.414;2023-08-17T11:56:26;5.85;;;1.50;;
39518;SDS011;25200;53.394;10.414;2023-08-17T11:58:51;3.33;;;1.70;;
39518;SDS011;25200;53.394;10.414;2023-08-17T12:01:17;2.85;;;1.42;;
39518;SDS011;25200;53.394;10.414;2023-08-17T12:03:43;4.03;;;1.70;;
39518;SDS011;25200;53.394;10.414;2023-08-17T12:06:09;4.43;;;1.65;;
39518;SDS011;25200;53.394;10.414;2023-08-17T12:08:37;5.35;;;1.90;;
39518;SDS011;25200;53.394;10.414;2023-08-17T12:11:03;6.28;;;1.70;;
39518;SDS011;25200;53.394;10.414;2023-08-17T12:13:33;3.70;;;1.67;;
39518;SDS011;25200;53.394;10.414;2023-08-17T12:15:59;4.30;;;1.73;;
39518;SDS011;25200;53.394;10.414;2023-08-17T12:18:25;3.42;;;1.65;;
39518;SDS011;25200;53.394;10.414;2023-08-17T12:20:54;4.75;;;1.58;;
39518;SDS011;25200;53.394;10.414;2023-08-17T12:23:21;3.70;;;1.60;;
39518;SDS011;25200;53.394;10.414;2023-08-17T12:25:51;4.85;;;1.83;;
39518;SDS011;25200;53.394;10.414;2023-08-17T12:28:21;4.07;;;1.90;;
39518;SDS011;25200;53.394;10.414;2023-08-17T12:30:55;4.18;;;1.80;;
39518;SDS011;25200;53.394;10.414;2023-08-17T12:33:26;4.97;;;2.17;;
39518;SDS011;25200;53.394;10.414;2023-08-17T12:35:51;4.65;;;1.83;;
39518;SDS011;25200;53.394;10.414;2023-08-17T12:38:17;4.18;;;2.00;;
39518;SDS011;25200;53.394;10.414;2023-08-17T12:40:43;4.38;;;1.80;;
39518;SDS011;25200;53.394;10.414;2023-08-17T12:43:08;4.82;;;1.92;;
39518;SDS011;25200;53.394;10.414;2023-08-17T12:45:34;3.65;;;1.75;;
39518;SDS011;25200;53.394;10.414;2023-08-17T12:48:00;4.10;;;2.00;;
39518;SDS011;25200;53.394;10.414;2023-08-17T12:50:25;3.78;;;1.90;;
39518;SDS011;25200;53.394;10.414;2023-08-17T12:52:51;4.70;;;1.80;;
39518;SDS011;25200;53.394;10.414;2023-08-17T12:55:16;5.50;;;1.80;;
39518;SDS011;25200;53.394;10.414;2023-08-17T12:57:42;5.07;;;2.00;;
39518;SDS011;25200;53.394;10.414;2023-08-17T13:00:08;5.68;;;2.00;;
39518;SDS011;25200;53.394;10.414;2023-08-17T13:02:34;4.60;;;2.10;;
39518;SDS011;25200;53.394;10.414;2023-08-17T13:05:00;4.60;;;2.00;;
39518;SDS011;25200;53.394;10.414;2023-08-17T13:07:25;5.05;;;1.90;;
39518;SDS011;25200;53.394;10.414;2023-08-17T13:09:51;5.53;;;2.00;;
39518;SDS011;25200;53.394;10.414;2023-08-17T13:12:16;4.72;;;2.00;;
39518;SDS011;25200;53.394;10.414;2023-08-17T13:14:42;4.05;;;1.95;;
39518;SDS011;25200;53.394;10.414;2023-08-17T13:17:08;6.43;;;2.00;;
39518;SDS011;25200;53.394;10.414;2023-08-17T13:19:33;6.35;;;2.03;;
39518;SDS011;25200;53.394;10.414;2023-08-17T13:21:59;3.10;;;1.60;;
39518;SDS011;25200;53.394;10.414;2023-08-17T13:24:25;5.53;;;1.90;;
39518;SDS011;25200;53.394;10.414;2023-08-17T13:26:51;7.28;;;1.90;;
39518;SDS011;25200;53.394;10.414;2023-08-17T13:29:19;5.05;;;1.73;;
39518;SDS011;25200;53.394;10.414;2023-08-17T13:31:48;3.53;;;1.83;;
39518;SDS011;25200;53.394;10.414;2023-08-17T13:34:14;4.65;;;1.75;;
39518;SDS011;25200;53.394;10.414;2023-08-17T13:36:40;4.22;;;1.67;;
39518;SDS011;25200;53.394;10.414;2023-08-17T13:39:06;4.35;;;1.80;;
39518;SDS011;25200;53.394;10.414;2023-08-17T13:41:32;4.60;;;1.88;;
39518;SDS011;25200;53.394;10.414;2023-08-17T13:43:57;4.97;;;1.80;;
39518;SDS011;25200;53.394;10.414;2023-08-17T13:46:23;3.42;;;1.63;;
39518;SDS011;25200;53.394;10.414;2023-08-17T13:48:49;3.30;;;1.52;;
39518;SDS011;25200;53.394;10.414;2023-08-17T13:51:14;4.72;;;1.50;;
39518;SDS011;25200;53.394;10.414;2023-08-17T13:53:40;3.35;;;1.60;;
39518;SDS011;25200;53.394;10.414;2023-08-17T13:56:06;3.58;;;1.58;;
39518;SDS011;25200;53.394;10.414;2023-08-17T13:58:31;3.15;;;1.50;;
39518;SDS011;25200;53.394;10.414;2023-08-17T14:00:57;4.22;;;1.70;;
39518;SDS011;25200;53.394;10.414;2023-08-17T14:03:23;3.88;;;1.50;;
39518;SDS011;25200;53.394;10.414;2023-08-17T14:05:49;2.50;;;1.50;;
39518;SDS011;25200;53.394;10.414;2023-08-17T14:08:15;3.20;;;1.63;;
39518;SDS011;25200;53.394;10.414;2023-08-17T14:10:40;2.72;;;1.50;;
39518;SDS011;25200;53.394;10.414;2023-08-17T14:13:06;2.58;;;1.40;;
39518;SDS011;25200;53.394;10.414;2023-08-17T14:15:32;3.75;;;1.30;;
39518;SDS011;25200;53.394;10.414;2023-08-17T14:17:58;4.68;;;1.58;;
39518;SDS011;25200;53.394;10.414;2023-08-17T14:20:23;3.72;;;1.40;;
39518;SDS011;25200;53.394;10.414;2023-08-17T14:22:49;2.50;;;1.27;;
39518;SDS011;25200;53.394;10.414;2023-08-17T14:25:15;3.20;;;1.60;;
39518;SDS011;25200;53.394;10.414;2023-08-17T14:27:40;4.78;;;1.67;;
39518;SDS011;25200;53.394;10.414;2023-08-17T14:30:06;4.65;;;1.25;;
39518;SDS011;25200;53.394;10.414;2023-08-17T14:32:32;4.68;;;1.55;;
39518;SDS011;25200;53.394;10.414;2023-08-17T14:34:58;2.40;;;1.15;;
39518;SDS011;25200;53.394;10.414;2023-08-17T14:37:23;4.25;;;1.52;;
39518;SDS011;25200;53.394;10.414;2023-08-17T14:39:49;5.85;;;1.60;;
39518;SDS011;25200;53.394;10.414;2023-08-17T14:42:15;2.97;;;1.40;;
39518;SDS011;25200;53.394;10.414;2023-08-17T14:44:40;3.08;;;1.45;;